Time;durP1;ratioP1;P1;durP2;ratioP2;P2;SDS_P1;SDS_P2;PMS_P1;PMS_P2;Temp;Humidity;BMP_temperature;BMP_pressure;BME280_temperature;BME280_humidity;BME280_pressure;Samples;Min_cycle;Max_cycle;Signal;HPM_P1;HPM_P2
2022/11/03 00:02:17;;;;;;;10.00;3.53;;;10.10;86.00;;;13.23;52.59;98014.69;4908502;29;20258;-51
2022/11/03 00:04:45;;;;;;;7.53;3.47;;;10.10;86.20;;;13.22;52.57;98003.13;4907667;29;20242;-53
2022/11/03 00:07:22;;;;;;;6.37;3.50;;;10.10;87.20;;;13.24;52.68;98005.66;4908173;29;20049;-51
2022/11/03 00:09:50;;;;;;;8.33;3.40;;;10.10;86.40;;;13.23;52.42;97998.66;4908274;29;20075;-56
2022/11/03 00:12:18;;;;;;;9.47;3.17;;;10.20;85.80;;;13.25;52.30;97993.97;4908570;29;20057;-55
2022/11/03 00:14:46;;;;;;;5.67;3.53;;;10.30;85.30;;;13.19;52.63;97995.47;4907318;29;20064;-53
2022/11/03 00:17:14;;;;;;;6.30;3.13;;;10.20;85.40;;;13.22;52.53;97988.94;4908143;29;20250;-55
2022/11/03 00:19:42;;;;;;;9.13;3.63;;;10.20;85.30;;;13.19;52.41;97995.47;4908072;29;20347;-55
2022/11/03 00:22:10;;;;;;;8.70;3.03;;;10.30;85.30;;;13.22;52.70;97991.63;4907590;29;20051;-55
2022/11/03 00:24:38;;;;;;;7.73;3.87;;;10.30;85.10;;;13.24;52.61;97992.28;4907559;29;20063;-54
2022/11/03 00:27:07;;;;;;;7.50;2.80;;;10.30;84.80;;;13.26;52.56;97996.47;4906737;29;20058;-54
2022/11/03 00:29:35;;;;;;;7.23;3.80;;;10.40;84.30;;;13.21;52.62;97980.09;4908060;29;20057;-53
2022/11/03 00:32:04;;;;;;;8.70;3.10;;;10.40;83.80;;;13.16;52.53;97985.97;4907870;29;20080;-54
2022/11/03 00:34:32;;;;;;;6.83;2.97;;;10.30;84.40;;;13.12;52.54;97973.91;4907074;29;20071;-53
2022/11/03 00:37:00;;;;;;;6.63;3.00;;;10.30;84.10;;;13.04;52.72;97981.94;4907926;29;20048;-51
2022/11/03 00:39:28;;;;;;;8.93;3.53;;;10.30;83.90;;;13.03;52.88;97977.63;4907407;29;20392;-54
2022/11/03 00:41:56;;;;;;;9.43;4.00;;;10.30;83.70;;;13.03;52.88;97979.44;4907391;29;20113;-56
2022/11/03 00:44:26;;;;;;;7.07;4.43;;;10.40;83.60;;;13.04;52.85;97978.44;4906445;29;20355;-55
2022/11/03 00:46:55;;;;;;;8.20;3.93;;;10.30;84.00;;;13.08;52.57;97977.09;4907323;29;20071;-55
2022/11/03 00:49:23;;;;;;;7.87;3.17;;;10.30;83.70;;;13.02;52.70;97973.25;4907497;29;20048;-52
2022/11/03 00:55:41;;;;;;;6.33;3.50;;;10.30;84.00;;;12.94;52.87;97973.28;4906956;29;20062;-56
2022/11/03 00:58:09;;;;;;;10.40;3.80;;;10.20;84.10;;;12.95;53.00;97973.13;4907234;29;20056;-52
2022/11/03 01:00:37;;;;;;;6.50;3.17;;;10.20;84.20;;;12.98;52.66;97975.44;4907097;29;20347;-55
2022/11/03 01:03:06;;;;;;;6.80;3.10;;;10.20;84.60;;;13.02;52.62;97967.09;4907035;29;20047;-52
2022/11/03 01:08:32;;;;;;;9.48;5.00;;;10.20;84.40;;;12.93;52.75;97963.56;4906992;29;20051;-51
2022/11/03 01:14:15;;;;;;;7.63;3.50;;;10.10;85.40;;;12.95;52.99;97957.09;4886223;29;20480;-52
2022/11/03 01:16:43;;;;;;;8.43;4.53;;;10.10;85.40;;;12.96;53.00;97955.25;4902988;29;20068;-50
2022/11/03 01:19:11;;;;;;;7.67;4.10;;;10.10;85.40;;;12.96;52.92;97950.72;4906978;29;20242;-52
2022/11/03 01:21:39;;;;;;;7.37;4.17;;;10.10;85.50;;;13.00;52.92;97949.38;4906698;29;20070;-53
2022/11/03 01:24:07;;;;;;;6.67;3.93;;;10.10;85.50;;;12.98;53.14;97942.53;4906418;29;20051;-50
2022/11/03 01:26:35;;;;;;;8.40;3.37;;;10.10;85.20;;;12.95;52.87;97932.19;4907007;29;20055;-50
2022/11/03 01:29:04;;;;;;;8.83;3.63;;;10.00;85.80;;;12.93;53.01;97921.69;4907257;29;20056;-53
2022/11/03 01:31:32;;;;;;;8.03;3.37;;;10.10;86.70;;;12.93;53.27;97919.00;4905583;29;20056;-51
2022/11/03 01:34:00;;;;;;;6.23;3.53;;;10.10;85.50;;;12.91;53.04;97914.81;4904044;29;20052;-52
2022/11/03 01:36:28;;;;;;;8.43;4.10;;;10.10;85.60;;;12.89;53.07;97914.16;4906694;29;20062;-52
2022/11/03 01:38:56;;;;;;;7.70;3.40;;;10.00;85.50;;;12.91;53.36;97910.34;4912151;29;20057;-50
2022/11/03 01:41:27;;;;;;;9.80;3.80;;;10.10;85.80;;;12.91;53.34;97902.31;4906887;29;20059;-51
2022/11/03 01:44:29;;;;;;;9.20;3.60;;;10.10;85.90;;;12.86;53.56;97901.97;4920373;29;20058;-53
2022/11/03 01:47:26;;;;;;;7.00;3.47;;;10.10;86.20;;;12.91;53.56;97909.47;4906753;29;20048;-50
2022/11/03 01:50:00;;;;;;;10.00;4.13;;;10.10;86.60;;;12.88;53.41;97917.84;4906831;29;20245;-50
2022/11/03 01:52:40;;;;;;;9.43;3.60;;;10.00;86.90;;;12.89;53.33;97920.34;4920760;29;20049;-49
2022/11/03 01:55:17;;;;;;;8.70;3.57;;;9.90;87.60;;;12.92;53.49;97913.81;4920428;29;20249;-49
2022/11/03 01:58:12;;;;;;;9.23;3.63;;;9.90;88.10;;;12.86;53.69;97898.47;4906390;29;20048;-53
2022/11/03 02:00:44;;;;;;;12.67;3.90;;;9.80;88.40;;;12.84;53.71;97897.81;4920827;29;20053;-52
2022/11/03 02:03:14;;;;;;;5.80;3.13;;;9.80;88.90;;;12.77;53.88;97895.78;4906939;29;20056;-50
2022/11/03 02:05:45;;;;;;;9.53;3.70;;;9.70;89.70;;;12.73;54.06;97896.31;4924013;29;20055;-54
2022/11/03 02:08:35;;;;;;;7.60;3.20;;;9.60;90.10;;;12.70;53.88;97894.81;4924814;29;20203;-52
2022/11/03 02:12:05;;;;;;;6.27;5.10;;;9.60;90.90;;;12.71;53.94;97893.81;4924529;29;20051;-50
2022/11/03 02:13:51;;;;;;;6.17;3.10;;;9.60;90.80;;;12.72;54.20;97898.16;4909732;29;20059;-48
2022/11/03 02:16:22;;;;;;;7.33;3.40;;;9.60;91.10;;;12.70;54.27;97896.66;4909996;29;20071;-52
2022/11/03 02:18:52;;;;;;;7.53;3.37;;;9.60;91.30;;;12.67;54.20;97894.31;4924486;29;20071;-49
2022/11/03 02:21:42;;;;;;;5.77;3.63;;;9.50;91.60;;;12.62;54.01;97886.81;4924613;29;20061;-51
2022/11/03 02:24:10;;;;;;;4.87;3.30;;;9.50;91.80;;;12.56;54.38;97877.66;4909466;29;20044;-50
2022/11/03 02:26:39;;;;;;;6.00;3.53;;;9.40;92.40;;;12.55;54.54;97880.47;4910323;29;20251;-50
2022/11/03 02:29:07;;;;;;;7.33;3.70;;;9.40;92.80;;;12.54;54.55;97876.97;4924047;29;20049;-51
2022/11/03 02:31:45;;;;;;;7.30;3.70;;;9.40;92.90;;;12.54;54.67;97870.78;4910001;29;20058;-51
2022/11/03 02:34:31;;;;;;;9.27;3.47;;;9.40;93.10;;;12.54;54.44;97868.97;4923823;29;20067;-50
2022/11/03 02:37:10;;;;;;;7.90;3.47;;;9.40;93.30;;;12.54;54.32;97854.75;4923873;29;20056;-49
2022/11/03 02:40:10;;;;;;;7.27;2.80;;;9.40;93.30;;;12.49;54.46;97851.78;4923370;29;20052;-53
2022/11/03 02:42:43;;;;;;;7.27;3.63;;;9.30;93.60;;;12.46;54.59;97847.59;4923501;29;20052;-53
2022/11/03 02:45:16;;;;;;;11.33;4.77;;;9.30;94.20;;;12.48;54.91;97848.25;4922286;29;20044;-50
2022/11/03 02:47:47;;;;;;;5.43;3.95;;;9.40;94.40;;;12.51;54.80;97844.44;4923796;29;20051;-49
2022/11/03 02:50:16;;;;;;;6.93;3.20;;;9.40;94.20;;;12.54;54.55;97839.59;4923980;29;20052;-48
2022/11/03 02:52:47;;;;;;;7.80;4.30;;;9.40;94.00;;;12.57;54.79;97839.25;4923705;29;20262;-50
2022/11/03 02:55:38;;;;;;;7.77;3.03;;;9.50;93.90;;;12.60;54.46;97832.72;4923705;29;20060;-50
2022/11/03 02:58:27;;;;;;;8.97;3.40;;;9.50;93.90;;;12.63;54.71;97828.91;4909595;29;20052;-49
2022/11/03 03:01:46;;;;;;;5.10;2.90;;;9.60;93.70;;;12.64;54.21;97815.38;4922820;29;20066;-50
2022/11/03 03:04:35;;;;;;;7.60;2.67;;;9.60;93.30;;;12.68;54.27;97805.16;4908087;29;20056;-53
2022/11/03 03:07:40;;;;;;;6.40;3.60;;;9.60;93.20;;;12.67;54.28;97799.00;4909185;29;20054;-51
2022/11/03 03:10:17;;;;;;;4.43;2.85;;;9.60;93.30;;;12.77;54.33;97798.78;4917162;29;20065;-49
2022/11/03 03:12:54;;;;;;;4.23;2.63;;;9.80;92.70;;;12.80;53.97;97799.28;4923876;29;20053;-53
2022/11/03 03:16:03;;;;;;;4.93;2.60;;;9.80;92.50;;;12.77;54.23;97796.94;4921971;29;20058;-52
2022/11/03 03:18:47;;;;;;;4.93;2.47;;;9.80;91.80;;;12.84;54.03;97788.28;4899178;29;20065;-51
2022/11/03 03:21:25;;;;;;;6.50;3.30;;;9.80;91.50;;;12.78;53.93;97795.97;4908859;29;20053;-54
2022/11/03 03:24:01;;;;;;;7.30;3.20;;;9.80;91.50;;;12.80;53.82;97793.13;4922896;29;20061;-54
2022/11/03 03:26:36;;;;;;;6.50;2.50;;;9.80;91.70;;;12.77;54.16;97788.94;4923047;29;20048;-50
2022/11/03 03:29:24;;;;;;;5.60;3.10;;;9.70;91.70;;;12.72;53.81;97779.78;4922802;29;20048;-51
2022/11/03 03:32:00;;;;;;;6.43;2.97;;;9.60;91.90;;;12.71;53.80;97775.44;4922931;29;20055;-51
2022/11/03 03:34:30;;;;;;;4.90;2.93;;;9.60;92.10;;;12.64;54.05;97767.28;4908283;29;20067;-49
2022/11/03 03:37:05;;;;;;;7.30;3.25;;;9.50;92.30;;;12.63;53.98;97775.47;4922747;29;20063;-53
2022/11/03 03:39:38;;;;;;;10.73;4.23;;;9.40;92.60;;;12.57;54.00;97766.31;4922976;29;20059;-52
2022/11/03 03:42:10;;;;;;;5.57;3.20;;;9.40;92.80;;;12.59;54.09;97758.94;4922868;29;20056;-52
2022/11/03 03:44:40;;;;;;;6.00;3.77;;;9.50;92.90;;;12.61;53.92;97762.28;4921739;29;20067;-51
2022/11/03 03:47:22;;;;;;;9.00;3.50;;;9.60;92.30;;;12.59;54.40;97758.94;4922935;29;20052;-49
2022/11/03 03:49:50;;;;;;;8.50;3.70;;;9.70;91.70;;;12.52;54.25;97755.28;4908621;29;20055;-49
2022/11/03 03:52:18;;;;;;;8.10;4.20;;;9.60;91.30;;;12.51;54.41;97750.97;4922889;29;20053;-52
2022/11/03 03:54:46;;;;;;;8.10;3.43;;;9.70;91.50;;;12.48;54.21;97740.63;4922378;29;20048;-50
2022/11/03 03:57:21;;;;;;;6.43;3.30;;;9.70;91.10;;;12.48;54.26;97738.78;4908142;29;20059;-51
2022/11/03 03:59:50;;;;;;;9.97;3.43;;;9.70;90.90;;;12.49;54.55;97736.97;4922345;29;20057;-52
2022/11/03 04:02:18;;;;;;;11.67;3.33;;;9.80;91.00;;;12.45;54.51;97733.78;4908166;29;20083;-50
2022/11/03 04:04:47;;;;;;;7.47;3.43;;;9.70;90.70;;;12.41;54.75;97730.63;4908290;29;20048;-52
2022/11/03 04:10:10;;;;;;;7.63;4.67;;;9.80;90.80;;;12.34;54.69;97720.81;4919419;29;20055;-53
2022/11/03 04:23:59;;;;;;;7.87;4.13;;;9.40;91.70;;;12.44;54.38;97709.94;4919519;29;20048;-51
2022/11/03 04:26:28;;;;;;;7.37;3.63;;;9.40;92.10;;;12.39;54.17;97700.59;4907799;29;20109;-51
2022/11/03 04:28:57;;;;;;;10.40;3.93;;;9.40;91.90;;;12.42;54.21;97704.75;4922397;29;20048;-49
2022/11/03 04:31:27;;;;;;;7.53;3.70;;;9.50;91.90;;;12.45;54.16;97704.44;4922235;29;20058;-52
2022/11/03 04:33:56;;;;;;;6.40;3.00;;;9.50;91.30;;;12.44;54.11;97700.06;4918175;29;20056;-53
2022/11/03 04:36:25;;;;;;;5.87;4.17;;;9.50;91.70;;;12.41;54.22;97706.59;4922298;29;20052;-52
2022/11/03 04:38:53;;;;;;;7.67;3.63;;;9.40;91.20;;;12.37;54.18;97707.94;4922226;29;20052;-51
2022/11/03 04:41:27;;;;;;;8.97;4.27;;;9.30;91.90;;;12.31;54.42;97708.63;4907672;29;20040;-53
2022/11/03 04:43:55;;;;;;;;;;;9.20;92.60;;;12.33;54.31;97703.09;4907422;29;20055;-48
2022/11/03 04:46:28;;;;;;;9.40;5.03;;;9.10;93.10;;;12.35;54.05;97698.44;4921674;29;19919;-50
2022/11/03 04:49:00;;;;;;;7.20;3.60;;;9.10;93.70;;;12.30;54.43;97688.28;4906539;29;20056;-50
2022/11/03 04:51:33;;;;;;;9.17;4.07;;;9.20;93.50;;;12.23;54.25;97695.28;4921792;29;20052;-50
2022/11/03 04:54:17;;;;;;;7.10;3.50;;;9.10;93.80;;;12.24;54.69;97691.63;4920997;29;20052;-53
2022/11/03 04:56:45;;;;;;;9.98;3.78;;;9.10;94.20;;;12.24;54.62;97693.47;4920325;29;20057;-47
2022/11/03 04:59:15;;;;;;;6.70;2.83;;;9.10;94.10;;;12.20;54.56;97688.47;4907490;29;20361;-53
2022/11/03 05:01:45;;;;;;;10.33;3.60;;;9.10;94.40;;;12.14;54.51;97686.47;4921659;29;20354;-53
2022/11/03 05:04:17;;;;;;;8.20;3.97;;;9.00;94.70;;;12.13;54.98;97687.47;4906600;29;20381;-50
2022/11/03 05:06:54;;;;;;;9.90;3.77;;;9.00;94.80;;;12.15;54.60;97680.13;4907753;29;20535;-48
2022/11/03 05:09:31;;;;;;;11.23;4.43;;;9.00;95.10;;;12.18;54.85;97673.63;4907057;29;20053;-48
2022/11/03 05:11:59;;;;;;;14.93;3.77;;;9.00;95.00;;;12.15;54.47;97669.44;4907302;29;20054;-52
2022/11/03 05:14:30;;;;;;;9.47;3.60;;;9.00;95.00;;;12.16;54.96;97662.28;4906563;29;20057;-51
2022/11/03 05:17:01;;;;;;;8.23;4.70;;;9.10;95.20;;;12.17;54.71;97661.28;4921623;29;20057;-51
2022/11/03 05:19:40;;;;;;;6.60;3.47;;;9.00;95.00;;;12.09;54.88;97656.78;4921356;29;20056;-53
2022/11/03 05:22:21;;;;;;;9.30;4.00;;;9.00;95.60;;;12.07;55.06;97655.31;4921221;29;20121;-52
2022/11/03 05:25:01;;;;;;;7.63;3.73;;;8.90;95.70;;;12.08;55.07;97656.97;4906354;29;20058;-51
2022/11/03 05:27:29;;;;;;;8.70;3.80;;;8.90;96.00;;;12.09;54.87;97648.78;4907086;29;20372;-51
2022/11/03 05:29:59;;;;;;;9.17;3.83;;;8.90;96.30;;;12.09;55.00;97631.94;4906817;29;20060;-49
2022/11/03 05:32:32;;;;;;;7.17;3.37;;;9.00;95.80;;;12.08;55.32;97627.59;4921385;29;20079;-51
2022/11/03 05:35:00;;;;;;;5.50;2.90;;;9.00;96.40;;;12.10;54.98;97625.63;4906373;29;20053;-48
2022/11/03 05:37:34;;;;;;;8.23;3.30;;;9.00;96.00;;;12.09;55.55;97624.78;4906972;29;20057;-53
2022/11/03 05:40:25;;;;;;;14.93;5.72;;;9.00;96.20;;;12.09;55.16;97624.78;4909198;29;20052;-51
2022/11/03 05:42:59;;;;;;;6.03;3.30;;;9.10;96.40;;;12.11;55.45;97629.94;4909785;29;20181;-49
2022/11/03 05:45:36;;;;;;;6.57;3.27;;;9.00;96.20;;;12.15;55.09;97618.75;4909247;29;20239;-53
2022/11/03 05:48:30;;;;;;;6.97;3.30;;;9.10;96.30;;;12.20;54.92;97608.41;4910707;29;20055;-49
2022/11/03 05:51:01;;;;;;;8.20;3.80;;;9.20;95.90;;;12.21;54.93;97611.88;4910660;29;20350;-52
2022/11/03 05:53:38;;;;;;;6.07;2.93;;;9.10;95.70;;;12.21;54.87;97611.88;4910058;29;20059;-49
2022/11/03 05:56:13;;;;;;;10.07;3.60;;;9.20;96.00;;;12.24;55.29;97616.06;4909293;29;20074;-52
2022/11/03 05:58:43;;;;;;;5.07;3.40;;;9.20;95.60;;;12.23;54.65;97609.88;4909616;29;20058;-50
2022/11/03 06:01:35;;;;;;;7.67;3.27;;;9.10;95.40;;;12.21;54.99;97607.41;4909426;29;20170;-52
2022/11/03 06:04:25;;;;;;;7.03;3.67;;;9.10;95.50;;;12.18;54.74;97599.72;4909004;29;20325;-50
2022/11/03 06:07:00;;;;;;;7.57;3.27;;;9.00;95.30;;;12.13;54.46;97594.06;4909260;29;20064;-51
2022/11/03 06:09:30;;;;;;;8.37;3.10;;;8.90;95.30;;;12.09;55.07;97603.41;4910427;29;20049;-47
2022/11/03 06:12:04;;;;;;;5.77;3.10;;;8.90;95.80;;;12.05;54.79;97590.59;4909107;29;20056;-52
2022/11/03 06:14:32;;;;;;;7.00;4.20;;;8.90;96.00;;;12.01;54.79;97582.09;4910094;29;20056;-50
2022/11/03 06:17:05;;;;;;;6.97;3.47;;;8.80;95.90;;;11.98;55.01;97574.44;4909286;29;20053;-49
2022/11/03 06:19:41;;;;;;;7.53;3.55;;;8.80;96.30;;;11.99;54.76;97570.78;4909194;29;20319;-48
2022/11/03 06:22:25;;;;;;;7.40;3.30;;;8.80;96.50;;;11.99;55.49;97558.25;4909063;29;20048;-51
2022/11/03 06:25:30;;;;;;;6.65;3.17;;;8.80;96.60;;;12.00;54.96;97559.94;4909445;29;20059;-49
2022/11/03 06:28:30;;;;;;;5.40;2.97;;;8.80;96.60;;;11.99;54.84;97554.78;4910027;29;20052;-48
2022/11/03 06:30:58;;;;;;;5.97;2.83;;;8.80;96.20;;;12.04;55.01;97567.59;4909690;29;20048;-47
2022/11/03 06:33:32;;;;;;;5.37;2.53;;;8.90;96.20;;;12.02;55.29;97559.78;4908825;29;20048;-51
2022/11/03 06:36:12;;;;;;;5.17;3.20;;;8.80;96.20;;;12.04;55.07;97567.59;4908795;29;20052;-48
2022/11/03 06:38:40;;;;;;;8.73;3.50;;;8.80;96.00;;;12.00;54.80;97575.94;4912131;29;20069;-52
2022/11/03 06:41:25;;;;;;;8.47;3.57;;;8.80;96.10;;;11.97;55.13;97572.78;4924127;29;20121;-52
2022/11/03 06:43:54;;;;;;;8.50;3.57;;;8.70;96.60;;;11.97;54.82;97573.63;4909736;29;20071;-51
2022/11/03 06:46:25;;;;;;;7.93;4.03;;;8.70;96.60;;;11.99;55.11;97578.78;4909534;29;20053;-49
2022/11/03 06:48:59;;;;;;;10.20;3.80;;;8.80;96.50;;;12.00;55.03;97575.94;4923799;29;20501;-50
2022/11/03 06:51:29;;;;;;;5.40;3.50;;;8.80;96.70;;;11.99;54.92;97574.28;4909510;29;20059;-52
2022/11/03 06:53:59;;;;;;;6.33;3.50;;;8.80;96.50;;;12.02;54.96;97570.44;4909614;29;20060;-51
2022/11/03 06:56:34;;;;;;;6.90;3.60;;;8.90;96.50;;;12.05;54.74;97561.25;4909362;29;20048;-50
2022/11/03 06:59:02;;;;;;;6.73;3.90;;;8.90;96.10;;;12.08;55.09;97561.75;4923333;29;20063;-51
2022/11/03 07:01:34;;;;;;;10.33;4.37;;;8.90;96.00;;;12.11;54.81;97564.06;4909093;29;20048;-54
2022/11/03 07:04:17;;;;;;;7.83;3.70;;;9.00;95.90;;;12.17;54.79;97559.88;4909110;29;20057;-49
2022/11/03 07:06:49;;;;;;;9.70;3.60;;;9.00;95.50;;;12.20;54.72;97555.00;4923329;29;20055;-49
2022/11/03 07:09:24;;;;;;;6.20;2.80;;;9.10;95.50;;;12.27;54.76;97554.31;4909121;29;20052;-52
2022/11/03 07:11:58;;;;;;;5.13;3.80;;;9.20;95.40;;;12.31;54.72;97551.13;4909269;29;20059;-48
2022/11/03 07:14:32;;;;;;;3.92;2.95;;;9.20;94.50;;;12.32;54.72;97541.28;4909159;29;20061;-48
2022/11/03 07:17:04;;;;;;;4.93;3.03;;;9.20;94.80;;;12.36;54.78;97529.25;4923594;29;20063;-50
2022/11/03 07:19:40;;;;;;;4.33;3.00;;;9.30;95.00;;;12.41;54.67;97529.56;4923273;29;20239;-50
2022/11/03 07:22:25;;;;;;;8.20;3.40;;;9.30;95.10;;;12.45;54.54;97538.88;4923284;29;20059;-49
2022/11/03 07:24:58;;;;;;;8.67;3.47;;;9.40;94.80;;;12.52;54.56;97536.31;4922531;29;20059;-51
2022/11/03 07:27:30;;;;;;;5.97;3.60;;;9.50;94.80;;;12.54;54.46;97523.63;4923228;29;20267;-53
2022/11/03 07:30:13;;;;;;;6.63;4.10;;;9.50;94.10;;;12.59;54.55;97534.63;4908696;29;20048;-50
2022/11/03 07:32:41;;;;;;;7.57;3.73;;;9.50;94.70;;;12.61;54.60;97538.78;4909362;29;20063;-48
2022/11/03 07:35:49;;;;;;;5.30;3.27;;;9.50;94.90;;;12.68;54.86;97522.03;4905040;29;20254;-50
2022/11/03 07:38:37;;;;;;;5.90;3.27;;;9.60;94.80;;;12.77;54.59;97524.47;4908370;29;20417;-52
2022/11/03 07:41:11;;;;;;;8.63;4.17;;;9.70;94.20;;;12.78;54.55;97517.31;4908696;29;20056;-51
2022/11/03 07:43:39;;;;;;;7.97;3.38;;;9.70;94.10;;;12.82;54.37;97513.28;4908684;29;20060;-52
2022/11/03 07:46:15;;;;;;;5.50;3.40;;;9.80;94.40;;;12.85;54.52;97510.22;4908349;29;20351;-52
2022/11/03 07:48:50;;;;;;;6.40;3.73;;;9.80;93.90;;;12.89;54.73;97506.22;4906405;29;20316;-53
2022/11/03 07:51:29;;;;;;;5.67;2.73;;;9.90;94.20;;;12.93;54.78;97506.66;4908351;29;20049;-50
2022/11/03 07:54:27;;;;;;;7.53;3.60;;;10.00;93.80;;;12.97;54.42;97497.31;4907061;29;20048;-47
2022/11/03 07:56:56;;;;;;;6.83;3.40;;;10.00;93.40;;;13.05;54.56;97494.56;4906885;29;20056;-50
2022/11/03 07:59:39;;;;;;;7.83;2.63;;;10.20;93.30;;;13.09;54.53;97487.81;4908580;29;20057;-50
2022/11/03 08:02:22;;;;;;;5.45;3.83;;;10.20;92.50;;;13.20;54.42;97495.41;4891470;29;20048;-50
2022/11/03 08:04:51;;;;;;;9.67;3.30;;;10.30;93.00;;;13.27;54.20;97490.16;4907939;29;20048;-51
2022/11/03 08:07:19;;;;;;;5.50;2.93;;;10.40;92.80;;;13.30;54.58;97486.31;4907872;29;20315;-51
2022/11/03 08:09:47;;;;;;;6.43;2.73;;;10.40;92.10;;;13.34;54.30;97480.44;4908168;29;20049;-52
2022/11/03 08:12:15;;;;;;;8.47;3.70;;;10.50;91.90;;;13.35;54.26;97479.41;4907701;29;20054;-47
2022/11/03 08:14:43;;;;;;;7.23;3.77;;;10.50;91.80;;;13.38;54.40;97470.22;4907646;29;20053;-51
2022/11/03 08:17:13;;;;;;;6.83;3.40;;;10.60;91.40;;;13.43;54.02;97451.75;4907883;29;20350;-49
2022/11/03 08:19:41;;;;;;;7.13;3.77;;;10.60;91.00;;;13.39;54.24;97445.94;4907683;29;20056;-50
2022/11/03 08:22:09;;;;;;;12.53;4.27;;;10.70;90.90;;;13.39;54.03;97437.91;4907771;29;20064;-49
2022/11/03 08:24:37;;;;;;;8.30;4.87;;;10.60;90.90;;;13.46;54.14;97447.91;4907454;29;20057;-50
2022/11/03 08:27:05;;;;;;;12.80;4.33;;;10.70;90.90;;;13.54;53.90;97447.81;4908048;29;20365;-51
2022/11/03 08:29:33;;;;;;;5.93;4.00;;;10.70;90.50;;;13.54;53.76;97448.63;4907496;29;20220;-53
2022/11/03 08:32:02;;;;;;;8.33;4.37;;;10.70;90.40;;;13.53;53.87;97440.78;4907398;29;20045;-47
2022/11/03 08:34:30;;;;;;;7.83;4.67;;;10.70;90.20;;;13.56;53.85;97433.22;4907062;29;20044;-50
2022/11/03 08:36:59;;;;;;;6.13;4.50;;;10.70;90.20;;;13.58;53.63;97438.38;4907483;29;20053;-48
2022/11/03 08:39:28;;;;;;;9.27;3.80;;;10.70;90.40;;;13.62;53.77;97430.81;4907050;29;20059;-51
2022/11/03 08:41:56;;;;;;;9.53;4.03;;;10.70;90.50;;;13.66;53.61;97427.59;4882676;29;20078;-48
2022/11/03 08:44:25;;;;;;;5.00;3.83;;;10.70;90.00;;;13.70;53.62;97428.03;4884602;29;20057;-49
2022/11/03 08:46:55;;;;;;;10.03;4.93;;;10.80;90.20;;;13.75;53.54;97417.63;4900371;29;20047;-53
2022/11/03 08:49:24;;;;;;;8.07;3.77;;;10.80;90.20;;;13.77;53.67;97413.75;4884698;29;20048;-53
2022/11/03 08:51:52;;;;;;;10.07;4.47;;;10.90;90.50;;;13.82;53.68;97413.16;4903020;29;20053;-50
2022/11/03 08:54:20;;;;;;;8.93;4.53;;;11.00;90.00;;;13.87;53.54;97404.59;4902127;29;20059;-51
2022/11/03 08:56:48;;;;;;;6.95;3.78;;;11.10;89.70;;;13.90;53.58;97401.53;4902471;29;20061;-53
2022/11/03 08:59:17;;;;;;;11.45;4.18;;;11.10;88.90;;;13.93;53.35;97406.50;4887833;29;20354;-47
2022/11/03 09:01:45;;;;;;;7.65;3.50;;;11.00;88.90;;;13.95;53.34;97407.16;4903671;29;20058;-50
2022/11/03 09:04:13;;;;;;;8.00;4.33;;;11.10;89.10;;;13.97;53.37;97400.59;4906589;29;20056;-49
2022/11/03 09:06:42;;;;;;;6.93;4.33;;;11.10;89.10;;;13.99;53.40;97397.72;4906834;29;20054;-51
2022/11/03 09:09:10;;;;;;;10.40;4.95;;;11.10;88.80;;;14.01;53.31;97392.19;4906511;29;20052;-48
2022/11/03 09:11:58;;;;;;;7.10;4.25;;;11.20;88.80;;;14.02;53.45;97393.88;4906757;29;20057;-48
2022/11/03 09:14:26;;;;;;;8.53;4.10;;;11.20;88.70;;;14.03;53.41;97387.47;4897290;29;20060;-54
2022/11/03 09:16:54;;;;;;;8.40;3.57;;;11.20;89.20;;;14.07;53.53;97386.91;4903916;29;20056;-50
2022/11/03 09:19:22;;;;;;;7.13;3.50;;;11.20;89.20;;;14.11;53.51;97382.00;4901030;29;20048;-51
2022/11/03 09:21:51;;;;;;;8.57;3.70;;;11.30;89.00;;;14.13;53.22;97383.50;4903965;29;20059;-52
2022/11/03 09:24:19;;;;;;;6.78;3.80;;;11.30;88.90;;;14.17;53.41;97384.75;4903054;29;20374;-51
2022/11/03 09:26:47;;;;;;;6.53;3.92;;;11.30;88.60;;;14.20;53.52;97383.53;4902302;29;20223;-50
2022/11/03 09:29:16;;;;;;;8.63;4.00;;;11.40;89.00;;;14.28;53.48;97380.72;4901828;29;20056;-53
2022/11/03 09:31:44;;;;;;;9.10;3.55;;;11.50;88.70;;;14.33;53.41;97369.47;4902551;29;20355;-52
2022/11/03 09:34:15;;;;;;;5.90;3.70;;;11.60;88.40;;;14.38;53.37;97375.06;4901951;29;20044;-53
2022/11/03 09:36:43;;;;;;;9.10;4.07;;;11.70;88.00;;;14.43;53.49;97372.63;4906971;29;20054;-52
2022/11/03 09:39:17;;;;;;;7.13;3.90;;;11.80;87.80;;;14.53;53.28;97375.00;4906599;29;20044;-52
2022/11/03 09:41:45;;;;;;;11.77;3.97;;;11.90;87.50;;;14.57;53.19;97379.78;4906366;29;20058;-52
2022/11/03 09:44:26;;;;;;;7.93;3.85;;;12.00;87.50;;;14.66;53.29;97377.81;4905462;29;20056;-51
2022/11/03 09:46:54;;;;;;;11.18;4.68;;;12.00;87.40;;;14.75;53.09;97365.94;4906616;29;20212;-54
2022/11/03 09:49:26;;;;;;;12.95;5.20;;;12.10;87.40;;;14.86;53.16;97358.38;4906079;29;20055;-53
2022/11/03 09:51:55;;;;;;;8.20;3.85;;;12.20;87.30;;;14.95;53.12;97355.34;4905291;29;20044;-53
2022/11/03 09:54:23;;;;;;;9.88;4.53;;;12.30;87.40;;;15.05;53.01;97354.19;4906299;29;20058;-50
2022/11/03 09:56:51;;;;;;;7.70;4.40;;;12.40;87.10;;;15.18;52.83;97356.94;4906475;29;20062;-51
2022/11/03 09:59:22;;;;;;;10.00;3.92;;;12.50;86.90;;;15.23;52.75;97354.50;4906628;29;20060;-49
2022/11/03 10:01:52;;;;;;;7.55;3.97;;;12.50;86.40;;;15.29;52.57;97353.69;4905394;29;20056;-51
2022/11/03 10:04:31;;;;;;;8.82;5.28;;;12.50;86.10;;;15.31;52.31;97350.81;4904923;29;20071;-52
2022/11/03 10:06:59;;;;;;;9.18;4.10;;;12.50;85.60;;;15.31;52.46;97342.78;4906462;29;20048;-49
2022/11/03 10:09:28;;;;;;;6.78;4.00;;;12.60;85.80;;;15.30;52.65;97339.25;4906546;29;20059;-49
2022/11/03 10:11:57;;;;;;;6.45;4.00;;;12.60;85.80;;;15.39;52.52;97333.72;4905956;29;20243;-48
2022/11/03 10:14:25;;;;;;;10.18;4.43;;;12.70;85.90;;;15.49;52.24;97326.13;4906005;29;20055;-51
2022/11/03 10:17:01;;;;;;;7.63;4.68;;;12.70;85.60;;;15.55;52.18;97328.03;4906693;29;20057;-50
2022/11/03 10:19:29;;;;;;;7.80;4.10;;;12.80;85.30;;;15.61;52.05;97326.41;4915216;29;20349;-52
2022/11/03 10:22:00;;;;;;;9.10;3.63;;;12.90;85.40;;;15.68;52.08;97311.13;4925164;29;20056;-51
2022/11/03 10:24:28;;;;;;;6.45;3.75;;;12.90;84.80;;;15.70;51.93;97317.97;4906239;29;20376;-51
2022/11/03 10:26:56;;;;;;;6.53;3.67;;;13.00;84.60;;;15.75;51.99;97306.66;4914242;29;20216;-48
2022/11/03 10:29:26;;;;;;;7.63;4.20;;;13.00;84.50;;;15.80;51.49;97306.88;4928758;29;20166;-52
2022/11/03 10:31:57;;;;;;;4.68;3.42;;;13.10;84.00;;;15.83;51.42;97305.66;4894030;29;20051;-51
2022/11/03 10:34:39;;;;;;;6.97;4.15;;;13.10;83.50;;;15.82;51.58;97296.78;4908421;29;20190;-52
2022/11/03 10:37:24;;;;;;;8.32;4.53;;;13.10;83.40;;;15.82;51.43;97285.19;4907946;29;20057;-51
2022/11/03 10:39:59;;;;;;;7.90;3.75;;;13.10;82.70;;;15.86;51.33;97281.09;4893446;29;20351;-51
2022/11/03 10:42:29;;;;;;;5.85;4.60;;;13.10;83.20;;;15.83;51.17;97273.44;4909873;29;20057;-52
2022/11/03 10:45:19;;;;;;;7.68;4.35;;;13.10;83.20;;;15.82;51.36;97264.56;4909599;29;20056;-52
2022/11/03 10:48:09;;;;;;;6.10;4.00;;;13.10;82.50;;;15.86;51.20;97262.31;4909363;29;20068;-53
2022/11/03 10:50:41;;;;;;;8.13;3.97;;;13.00;81.80;;;15.87;51.12;97267.44;4891876;29;20052;-49
2022/11/03 10:53:19;;;;;;;8.32;4.00;;;13.00;82.80;;;15.92;51.29;97261.47;4908528;29;20052;-51
2022/11/03 10:55:52;;;;;;;6.57;4.60;;;13.10;83.00;;;15.97;51.18;97255.50;4908739;29;20053;-49
2022/11/03 10:58:23;;;;;;;6.50;4.30;;;13.10;83.20;;;15.97;50.95;97253.63;4909406;29;20380;-52
2022/11/03 11:00:52;;;;;;;6.68;3.78;;;13.10;82.50;;;15.99;50.96;97256.09;4877479;29;20055;-49
2022/11/03 11:03:20;;;;;;;5.80;3.30;;;13.10;82.60;;;16.01;50.84;97249.50;4909200;29;20051;-53
2022/11/03 11:05:48;;;;;;;5.63;3.63;;;13.10;83.20;;;16.06;51.02;97240.84;4925375;29;20052;-50
2022/11/03 11:08:22;;;;;;;4.10;3.17;;;13.20;83.10;;;16.09;51.08;97235.88;4926858;29;20055;-51
2022/11/03 11:10:52;;;;;;;5.25;3.78;;;13.30;82.70;;;16.13;50.75;97223.69;4927188;29;20044;-48
2022/11/03 11:13:20;;;;;;;6.88;3.72;;;13.30;82.60;;;16.11;50.99;97212.34;4926876;29;20058;-51
2022/11/03 11:16:00;;;;;;;7.70;3.75;;;13.30;82.60;;;16.17;51.02;97204.47;4927583;29;20048;-52